Strona główna
METAR-TAF:

METAR-TAF

Lotnisko :

Port lotniczy Lusaka

Lusaka, Zambia

Szerokość geograficzna: 15-19-51S, Długość geograficzna: 028-27-09E, wysokość: 1152 m

Aktualna obserwacja pogody

Raport powstał 27 minut temu, godzina 05:00 UTC
Cisza
Temperatura 10°C
Wilgotność 71%
Ciśnienie 1023 hPa
Widzialność: 9000 m

METAR: FLKK 200500Z 00000KT 9000 10/05 Q1023

czas: 07:27 (05:27 UTC)

Prognoza

Raport powstał 25 godziny i 27 minut temu, godzina 04:00 UTC
Prognoza ważna od 19 godzina 06 UTC do 20 godzina 12 UTC
Wiatr 5 kt od wschód
Widzialność: 9000 m
Stopniowe zmiany
od 19 godzina 07 UTC do 19 godzina 09 UTC
Wiatr 5 kt od wschód
Mało chmury na wysokości 2500 ft
Stopniowe zmiany
od 19 godzina 14 UTC do 19 godzina 16 UTC
Wiatr 5 kt od południowo-południowy wschód
Widzialność 10 km lub więcej
Brak chmur poniżej 1500 m i brak chmur cumulonimbus

TAF: FLKK 190400Z 1906/2012 09005KT 9000 NSC BECMG 1907/1909 10005KT FEW025 BECMG 1914/1916 15005KT CAVOK

Obserwacja i prognoza pogody dla ponad 4000 lotnisk (raport METAR i TAF).

Dostępne stacje oznaczono żółtymi i czerwonymi punktami na mapie.

Najedź kursorem aby zobaczyć nazwę stacji.

Kliknij aby zobaczyć obserwacje i prognozy pogody.

Aby zmienić mapę: kliknij na zielony przycisk z czarnym krzyżykiem, aby powiększyć; na zielony przycisk z myślnikiem, aby pomniejszyć; na zielone strzałki, aby przejść do map sąsiednich.


METAR-TAF: